createdAt,value
2022-10-02T00:02:25.037Z,99.9
2022-10-02T00:04:24.763Z,99.9
2022-10-02T00:05:26.262Z,99.9
2022-10-02T00:07:25.941Z,99.9
2022-10-02T00:09:25.599Z,99.9
2022-10-02T00:15:28.029Z,99.9
2022-10-02T00:17:27.726Z,99.9
2022-10-02T00:19:27.404Z,99.9
2022-10-02T00:21:27.064Z,99.9
2022-10-02T00:23:26.732Z,99.9
2022-10-02T00:27:29.528Z,99.9
2022-10-02T00:29:29.197Z,99.9
2022-10-02T00:31:28.944Z,99.9
2022-10-02T00:33:28.581Z,99.9
2022-10-02T00:35:28.260Z,99.9
2022-10-02T00:37:27.950Z,99.9
2022-10-02T00:39:27.629Z,99.9
2022-10-02T00:41:30.729Z,99.9
2022-10-02T00:43:30.425Z,99.9
2022-10-02T00:45:30.138Z,99.9
2022-10-02T00:47:29.772Z,99.9
2022-10-02T00:49:29.439Z,99.9
2022-10-02T00:51:29.115Z,99.9
2022-10-02T00:53:28.810Z,99.9
2022-10-02T00:55:31.889Z,99.9
2022-10-02T00:57:31.571Z,99.9
2022-10-02T00:59:31.265Z,99.9
2022-10-02T01:01:53.188Z,99.9
2022-10-02T01:03:52.817Z,99.9
2022-10-02T01:05:52.504Z,99.9
2022-10-02T01:07:55.610Z,99.9
2022-10-02T01:09:55.294Z,99.9
2022-10-02T01:11:54.952Z,99.9
2022-10-02T01:13:54.659Z,99.9
2022-10-02T01:15:54.368Z,99.9
2022-10-02T01:17:54.026Z,99.9
2022-10-02T01:23:56.450Z,99.9
2022-10-02T01:25:56.170Z,99.9
2022-10-02T01:29:55.542Z,99.9
2022-10-02T01:31:55.255Z,99.9
2022-10-02T01:33:54.900Z,99.9
2022-10-02T01:35:58.028Z,99.9
2022-10-02T01:39:57.419Z,99.9
2022-10-02T01:41:57.120Z,99.9
2022-10-02T01:43:56.788Z,99.9
2022-10-02T01:45:56.534Z,99.9
2022-10-02T01:53:58.674Z,99.9
2022-10-02T01:55:00.197Z,99.9
2022-10-02T02:03:02.348Z,99.9
2022-10-02T02:05:02.057Z,99.9
2022-10-02T02:09:02.179Z,99.9
2022-10-02T02:11:01.138Z,99.9
2022-10-02T02:13:00.853Z,99.9
2022-10-02T02:15:00.551Z,99.9
2022-10-02T02:17:03.632Z,99.9
2022-10-02T02:19:03.369Z,99.9
2022-10-02T02:21:03.046Z,99.9
2022-10-02T02:23:02.753Z,99.9
2022-10-02T02:25:02.440Z,99.9
2022-10-02T02:27:02.148Z,99.9
2022-10-02T02:29:01.853Z,99.9
2022-10-02T02:31:04.961Z,99.9
2022-10-02T02:33:04.655Z,99.9
2022-10-02T02:35:04.355Z,99.9
2022-10-02T02:37:04.095Z,99.9
2022-10-02T02:39:03.753Z,99.9
2022-10-02T02:41:03.469Z,99.9
2022-10-02T02:43:03.183Z,99.9
2022-10-02T02:45:06.288Z,99.9
2022-10-02T02:47:05.995Z,99.9
2022-10-02T02:49:05.705Z,99.9
2022-10-02T02:50:07.290Z,99.9
2022-10-02T02:52:06.993Z,99.9
2022-10-02T02:54:06.720Z,99.9
2022-10-02T02:56:06.424Z,99.9
2022-10-02T03:00:09.263Z,99.9
2022-10-02T03:02:09.066Z,99.9
2022-10-02T03:04:08.702Z,99.9
2022-10-02T03:06:08.419Z,99.9
2022-10-02T03:08:08.131Z,99.9
2022-10-02T03:10:07.883Z,99.9
2022-10-02T03:12:10.962Z,99.9
2022-10-02T03:22:09.568Z,99.9
2022-10-02T03:28:12.180Z,99.9
2022-10-02T03:36:10.937Z,99.9
2022-10-02T03:40:13.734Z,99.9
2022-10-02T03:42:13.427Z,99.9
2022-10-02T03:44:13.148Z,99.9
2022-10-02T03:45:32.743Z,99.9
2022-10-02T03:47:14.389Z,99.9
2022-10-02T03:49:14.086Z,99.9
2022-10-02T03:51:13.778Z,99.9
2022-10-02T03:55:16.630Z,99.9
2022-10-02T03:57:16.374Z,99.9
2022-10-02T03:59:16.038Z,99.9
2022-10-02T04:01:15.828Z,99.9
2022-10-02T04:03:15.496Z,99.9
2022-10-02T04:05:15.309Z,99.9
2022-10-02T04:07:18.287Z,99.9
2022-10-02T04:09:17.982Z,99.9
2022-10-02T04:11:17.695Z,99.9
2022-10-02T04:13:17.393Z,99.9
2022-10-02T04:15:17.283Z,99.9
2022-10-02T04:17:16.809Z,99.9
2022-10-02T04:19:16.484Z,99.9
2022-10-02T04:21:19.613Z,99.9
2022-10-02T04:25:19.032Z,99.9
2022-10-02T04:27:20.285Z,99.9
2022-10-02T04:29:19.906Z,99.9
2022-10-02T04:31:19.684Z,99.9
2022-10-02T04:33:19.329Z,99.9
2022-10-02T04:35:23.680Z,99.9
2022-10-02T04:37:22.138Z,99.9
2022-10-02T04:39:26.840Z,99.9
2022-10-02T04:41:37.633Z,99.9
2022-10-02T04:43:37.311Z,99.9
2022-10-02T04:45:37.101Z,99.9
2022-10-02T04:47:40.129Z,99.9
2022-10-02T04:49:39.784Z,99.9
2022-10-02T04:51:39.489Z,99.9
2022-10-02T04:53:39.168Z,99.9
2022-10-02T04:55:38.874Z,99.9
2022-10-02T04:57:38.547Z,99.9
2022-10-02T04:59:38.257Z,99.9
2022-10-02T05:01:41.399Z,99.9
2022-10-02T05:03:41.036Z,99.9
2022-10-02T05:05:40.724Z,99.9
2022-10-02T05:07:40.450Z,99.9
2022-10-02T05:09:40.130Z,99.9
2022-10-02T05:11:39.836Z,99.9
2022-10-02T05:13:39.499Z,99.9
2022-10-02T05:15:42.594Z,99.9
2022-10-02T05:19:41.984Z,99.9
2022-10-02T05:23:41.393Z,99.9
2022-10-02T05:25:41.075Z,99.9
2022-10-02T05:27:40.754Z,99.9
2022-10-02T05:29:43.875Z,99.9
2022-10-02T05:33:48.060Z,99.9
2022-10-02T05:34:44.824Z,99.9
2022-10-02T05:36:44.497Z,99.9
2022-10-02T05:38:44.221Z,99.9
2022-10-02T05:40:43.899Z,99.9
2022-10-02T05:42:46.973Z,99.9
2022-10-02T05:44:46.708Z,99.9
2022-10-02T05:46:46.399Z,99.9
2022-10-02T05:48:46.325Z,99.9
2022-10-02T05:50:45.778Z,99.9
2022-10-02T05:52:45.452Z,99.9
2022-10-02T05:54:45.167Z,99.9
2022-10-02T05:56:48.272Z,99.9
2022-10-02T05:58:47.970Z,99.9
2022-10-02T06:00:47.722Z,99.9
2022-10-02T06:02:47.313Z,99.9
2022-10-02T06:04:47.021Z,99.9
2022-10-02T06:06:46.734Z,99.9
2022-10-02T06:08:46.381Z,99.9
2022-10-02T06:10:49.462Z,99.9
2022-10-02T06:14:50.775Z,99.9
2022-10-02T06:16:48.674Z,99.9
2022-10-02T06:18:48.231Z,99.9
2022-10-02T06:29:51.600Z,99.9
2022-10-02T06:31:51.440Z,99.9
2022-10-02T06:33:50.967Z,99.9
2022-10-02T06:35:50.635Z,99.9
2022-10-02T06:37:53.679Z,99.9
2022-10-02T06:39:53.380Z,99.9
2022-10-02T06:41:53.079Z,99.9
2022-10-02T06:43:52.734Z,99.9
2022-10-02T06:45:52.543Z,99.9
2022-10-02T06:47:52.114Z,99.9
2022-10-02T06:49:51.777Z,99.9
2022-10-02T06:51:54.833Z,99.9
2022-10-02T06:53:54.525Z,99.9
2022-10-02T06:55:54.872Z,99.9
2022-10-02T06:57:53.941Z,99.9
2022-10-02T06:59:53.576Z,99.9
2022-10-02T07:01:57.200Z,99.9
2022-10-02T07:03:52.932Z,99.9
2022-10-02T07:05:56.183Z,99.9
2022-10-02T07:08:05.629Z,99.9
2022-10-02T07:09:55.375Z,99.9
2022-10-02T07:11:55.069Z,99.9
2022-10-02T07:13:54.710Z,99.9
2022-10-02T07:17:54.038Z,99.9
2022-10-02T07:21:56.798Z,99.9
2022-10-02T07:24:00.120Z,99.9
2022-10-02T07:24:57.956Z,99.9
2022-10-02T07:26:57.661Z,99.9
2022-10-02T07:28:57.324Z,99.9
2022-10-02T07:30:56.777Z,99.9
2022-10-02T07:34:59.485Z,99.9
2022-10-02T07:36:59.143Z,99.9
2022-10-02T07:44:57.838Z,99.9
2022-10-02T07:52:59.874Z,99.9
2022-10-02T07:54:59.527Z,99.9
2022-10-02T07:56:59.193Z,99.9
2022-10-02T07:58:58.849Z,99.9
2022-10-02T08:01:01.915Z,99.9
2022-10-02T08:03:01.651Z,99.9
2022-10-02T08:05:01.220Z,99.9
2022-10-02T08:07:00.874Z,99.9
2022-10-02T08:09:00.528Z,99.9
2022-10-02T08:11:00.163Z,99.9
2022-10-02T08:15:02.876Z,99.9
2022-10-02T08:17:02.512Z,99.9
2022-10-02T08:19:02.144Z,99.9
2022-10-02T08:21:23.634Z,99.9
2022-10-02T08:23:23.299Z,99.9
2022-10-02T08:25:22.912Z,99.9
2022-10-02T08:27:25.915Z,99.9
2022-10-02T08:29:25.573Z,99.9
2022-10-02T08:31:25.313Z,99.9
2022-10-02T08:33:24.796Z,99.9
2022-10-02T08:35:24.423Z,99.9
2022-10-02T08:37:24.044Z,99.9
2022-10-02T08:39:23.661Z,99.9
2022-10-02T08:41:26.678Z,99.9
2022-10-02T08:43:26.304Z,99.9
2022-10-02T08:45:25.960Z,99.9
2022-10-02T08:47:25.502Z,99.9
2022-10-02T08:49:25.121Z,99.9
2022-10-02T08:51:24.713Z,99.9
2022-10-02T08:53:24.293Z,99.9
2022-10-02T08:55:27.304Z,99.9
2022-10-02T08:57:26.897Z,99.9
2022-10-02T08:59:26.509Z,99.9
2022-10-02T09:01:26.220Z,99.9
2022-10-02T09:03:25.704Z,99.9
2022-10-02T09:05:25.306Z,99.9
2022-10-02T09:07:28.206Z,99.9
2022-10-02T09:09:27.873Z,99.9
2022-10-02T09:11:27.471Z,99.9
2022-10-02T09:13:27.058Z,99.9
2022-10-02T09:14:28.557Z,99.9
2022-10-02T09:16:28.201Z,99.9
2022-10-02T09:18:27.717Z,99.9
2022-10-02T09:20:27.296Z,99.9
2022-10-02T09:30:28.507Z,99.9
2022-10-02T09:32:28.072Z,99.9
2022-10-02T09:34:27.631Z,99.9
2022-10-02T09:42:29.159Z,99.9
2022-10-02T09:44:28.672Z,99.9
2022-10-02T09:46:28.189Z,99.9
2022-10-02T09:48:27.692Z,99.9
2022-10-02T09:50:30.619Z,99.9
2022-10-02T09:52:30.127Z,99.9
2022-10-02T09:54:29.591Z,99.9
2022-10-02T09:56:29.063Z,99.9
2022-10-02T09:58:28.544Z,99.9
2022-10-02T10:02:27.552Z,99.9
2022-10-02T10:04:47.620Z,99.9
2022-10-02T10:06:29.827Z,99.9
2022-10-02T10:08:29.260Z,99.9
2022-10-02T10:11:31.665Z,99.9
2022-10-02T10:13:31.074Z,99.9
2022-10-02T10:15:30.518Z,99.9
2022-10-02T10:17:33.290Z,99.9
2022-10-02T10:19:32.687Z,99.9
2022-10-02T10:21:31.995Z,99.9
2022-10-02T10:23:31.341Z,99.9
2022-10-02T10:25:30.748Z,99.9
2022-10-02T10:27:30.163Z,99.9
2022-10-02T10:29:29.455Z,99.9
2022-10-02T10:31:32.144Z,99.9
2022-10-02T10:33:31.355Z,99.9
2022-10-02T10:35:30.621Z,99.9
2022-10-02T10:37:29.907Z,99.9
2022-10-02T10:39:29.190Z,99.9
2022-10-02T10:41:28.474Z,99.9
2022-10-02T10:43:27.756Z,99.9
2022-10-02T10:47:29.666Z,99.9
2022-10-02T10:49:28.965Z,99.9
2022-10-02T10:51:28.254Z,99.9
2022-10-02T10:53:27.515Z,99.9
2022-10-02T10:55:26.802Z,99.9
2022-10-02T11:04:29.522Z,99.9
2022-10-02T11:14:29.372Z,99.9
2022-10-02T11:16:28.815Z,99.9
2022-10-02T11:22:26.657Z,99.9
2022-10-02T11:24:26.049Z,99.9
2022-10-02T11:26:28.876Z,99.9
2022-10-02T11:28:28.254Z,99.9
2022-10-02T11:30:27.500Z,99.9
2022-10-02T11:32:26.924Z,99.9
2022-10-02T11:34:26.253Z,99.9
2022-10-02T11:36:25.663Z,99.9
2022-10-02T11:38:25.079Z,99.9
2022-10-02T11:40:27.953Z,99.9
2022-10-02T11:42:27.407Z,99.9
2022-10-02T11:44:26.818Z,99.9
2022-10-02T11:46:26.146Z,99.9
2022-10-02T11:48:25.590Z,99.9
2022-10-02T11:50:25.019Z,99.9
2022-10-02T11:52:24.430Z,99.9
2022-10-02T11:54:27.283Z,98.6
2022-10-02T11:56:26.609Z,96.2
2022-10-02T11:58:25.944Z,96.3
2022-10-02T12:00:50.688Z,97.9
2022-10-02T12:02:50.079Z,97.9
2022-10-02T12:04:49.275Z,91.1
2022-10-02T12:06:51.918Z,88.6
2022-10-02T12:08:51.197Z,92
2022-10-02T12:10:50.668Z,92.7
2022-10-02T12:12:49.759Z,94.6
2022-10-02T12:14:49.042Z,89.4
2022-10-02T12:16:48.375Z,87.7
2022-10-02T12:18:47.599Z,83.2
2022-10-02T12:22:49.473Z,79.9
2022-10-02T12:24:52.686Z,79.8
2022-10-02T12:26:47.951Z,79.2
2022-10-02T12:28:47.182Z,79.1
2022-10-02T12:30:46.398Z,76.9
2022-10-02T12:32:45.630Z,76.4
2022-10-02T12:36:47.442Z,77.8
2022-10-02T12:38:46.640Z,77.2
2022-10-02T12:40:45.839Z,77
2022-10-02T12:42:45.026Z,76.8
2022-10-02T12:44:44.245Z,71.6
2022-10-02T12:46:43.434Z,71.3
2022-10-02T12:48:45.987Z,71.3
2022-10-02T12:50:45.157Z,71.1
2022-10-02T12:52:44.374Z,70.7
2022-10-02T12:53:45.631Z,69.5
2022-10-02T12:57:44.008Z,67.8
2022-10-02T12:59:43.160Z,66.7
2022-10-02T13:01:45.755Z,71
2022-10-02T13:03:44.880Z,78.8
2022-10-02T13:09:42.399Z,88.6
2022-10-02T13:11:41.611Z,89.9
2022-10-02T13:13:40.829Z,89.9
2022-10-02T13:15:43.390Z,87.7
2022-10-02T13:19:41.874Z,88.1
2022-10-02T13:25:39.629Z,76.2
2022-10-02T13:27:38.898Z,75.7
2022-10-02T13:43:39.928Z,64.5
2022-10-02T13:47:38.494Z,63.1
2022-10-02T13:50:39.048Z,61.1
2022-10-02T13:52:38.304Z,60.4
2022-10-02T13:54:37.576Z,60.3
2022-10-02T13:56:40.150Z,60.4
2022-10-02T13:58:39.435Z,60.2
2022-10-02T14:02:37.946Z,57.3
2022-10-02T14:04:37.163Z,60.5
2022-10-02T14:06:36.441Z,68.1
2022-10-02T14:08:35.680Z,62
2022-10-02T14:10:38.396Z,65.2
2022-10-02T14:12:37.675Z,69.4
2022-10-02T14:16:36.364Z,61.5
2022-10-02T14:18:35.607Z,62
2022-10-02T14:20:34.996Z,61.6
2022-10-02T14:22:34.269Z,59.2
2022-10-02T14:24:37.105Z,65.1
2022-10-02T14:26:36.527Z,64.8
2022-10-02T14:30:35.103Z,63.4
2022-10-02T14:32:34.396Z,63.2
2022-10-02T14:34:33.702Z,62.2
2022-10-02T14:36:33.119Z,60.9
2022-10-02T14:38:35.754Z,58.7
2022-10-02T14:40:35.034Z,57.6
2022-10-02T14:42:34.343Z,56.9
2022-10-02T14:43:35.662Z,56.4
2022-10-02T14:45:34.981Z,56.1
2022-10-02T14:47:34.230Z,56.1
2022-10-02T14:51:36.302Z,56.1
2022-10-02T14:53:35.438Z,55.9
2022-10-02T14:55:34.739Z,56.2
2022-10-02T14:57:33.999Z,55.8
2022-10-02T14:59:33.305Z,55.6
2022-10-02T15:01:32.658Z,55.5
2022-10-02T15:03:31.977Z,55.7
2022-10-02T15:05:34.605Z,56.1
2022-10-02T15:07:33.894Z,56.5
2022-10-02T15:09:33.277Z,57.1
2022-10-02T15:11:32.545Z,58.5
2022-10-02T15:13:31.832Z,58.6
2022-10-02T15:15:31.126Z,58.9
2022-10-02T15:17:30.412Z,59.3
2022-10-02T15:21:32.347Z,59.8
2022-10-02T15:23:31.634Z,59.8
2022-10-02T15:27:30.234Z,59.6
2022-10-02T15:29:29.552Z,59.6
2022-10-02T15:31:28.874Z,59.8
2022-10-02T15:33:31.483Z,60.6
2022-10-02T15:39:51.279Z,60.4
2022-10-02T15:41:50.593Z,60.4
2022-10-02T15:43:49.926Z,60.5
2022-10-02T15:47:52.026Z,61.3
2022-10-02T15:49:51.447Z,61.5
2022-10-02T15:51:50.794Z,62.7
2022-10-02T15:53:50.246Z,64
2022-10-02T15:55:51.202Z,68.2
2022-10-02T15:57:50.626Z,72.2
2022-10-02T15:59:53.519Z,83.5
2022-10-02T16:03:52.431Z,92.2
2022-10-02T16:05:51.918Z,96.5
2022-10-02T16:07:51.376Z,98.3
2022-10-02T16:09:50.863Z,98.6
2022-10-02T16:11:50.355Z,99.1
2022-10-02T16:13:53.260Z,99.6
2022-10-02T16:15:52.877Z,99.6
2022-10-02T16:17:52.235Z,99.9
2022-10-02T16:19:51.769Z,99.9
2022-10-02T16:23:50.825Z,99.9
2022-10-02T16:27:53.321Z,99.9
2022-10-02T16:29:52.853Z,99.9
2022-10-02T16:31:52.420Z,99.9
2022-10-02T16:32:53.837Z,99.9
2022-10-02T16:36:52.918Z,99.9
2022-10-02T16:38:52.485Z,99.9
2022-10-02T16:40:55.609Z,99.9
2022-10-02T16:42:55.001Z,99.9
2022-10-02T16:44:54.562Z,99.9
2022-10-02T16:46:54.154Z,99.9
2022-10-02T16:48:53.726Z,99.9
2022-10-02T16:52:52.846Z,99.9
2022-10-02T16:54:55.851Z,99.9
2022-10-02T16:56:55.431Z,99.9
2022-10-02T16:58:58.036Z,99.9
2022-10-02T17:00:54.892Z,99.9
2022-10-02T17:02:54.246Z,99.9
2022-10-02T17:04:53.785Z,99.9
2022-10-02T17:08:56.382Z,99.9
2022-10-02T17:10:56.145Z,99.9
2022-10-02T17:14:55.262Z,99.9
2022-10-02T17:18:54.501Z,99.9
2022-10-02T17:20:54.270Z,99.9
2022-10-02T17:22:57.149Z,99.9
2022-10-02T17:24:56.769Z,99.9
2022-10-02T17:26:56.389Z,99.9
2022-10-02T17:29:57.543Z,99.9
2022-10-02T17:31:57.127Z,99.9
2022-10-02T17:35:59.838Z,99.9
2022-10-02T17:37:59.434Z,99.9
2022-10-02T17:39:59.075Z,99.9
2022-10-02T17:41:58.696Z,99.9
2022-10-02T17:43:58.321Z,99.9
2022-10-02T17:45:58.008Z,99.9
2022-10-02T17:50:00.648Z,99.9
2022-10-02T17:52:00.223Z,99.9
2022-10-02T17:53:59.839Z,99.9
2022-10-02T17:55:59.466Z,99.9
2022-10-02T18:00:03.516Z,99.9
2022-10-02T18:04:01.397Z,99.9
2022-10-02T18:06:01.020Z,99.9
2022-10-02T18:10:00.331Z,99.9
2022-10-02T18:11:59.941Z,99.9
2022-10-02T18:13:59.936Z,99.9
2022-10-02T18:15:59.282Z,99.9
2022-10-02T18:18:02.280Z,99.9
2022-10-02T18:20:01.939Z,99.9
2022-10-02T18:22:01.563Z,99.9
2022-10-02T18:27:02.354Z,99.9
2022-10-02T18:29:02.012Z,99.9
2022-10-02T18:31:05.077Z,99.9
2022-10-02T18:33:04.743Z,99.9
2022-10-02T18:35:04.402Z,99.9
2022-10-02T18:37:04.056Z,99.9
2022-10-02T18:39:03.728Z,99.9
2022-10-02T18:41:03.382Z,99.9
2022-10-02T18:43:03.044Z,99.9
2022-10-02T18:45:06.133Z,99.9
2022-10-02T18:47:05.776Z,99.9
2022-10-02T18:49:05.482Z,99.9
2022-10-02T18:51:05.132Z,99.9
2022-10-02T18:53:04.781Z,99.9
2022-10-02T18:55:04.452Z,99.9
2022-10-02T18:57:04.137Z,99.9
2022-10-02T18:59:07.245Z,99.9
2022-10-02T19:01:07.142Z,99.9
2022-10-02T19:03:06.569Z,99.9
2022-10-02T19:05:06.248Z,99.9
2022-10-02T19:07:05.958Z,99.9
2022-10-02T19:09:05.660Z,99.9
2022-10-02T19:11:05.331Z,99.9
2022-10-02T19:13:08.476Z,99.9
2022-10-02T19:15:08.169Z,99.9
2022-10-02T19:17:07.877Z,99.9
2022-10-02T19:19:29.604Z,99.9
2022-10-02T19:23:29.018Z,99.9
2022-10-02T19:25:32.091Z,99.9
2022-10-02T19:27:31.759Z,99.9
2022-10-02T19:29:31.484Z,99.9
2022-10-02T19:31:31.258Z,99.9
2022-10-02T19:33:30.895Z,99.9
2022-10-02T19:35:30.591Z,99.9
2022-10-02T19:37:30.346Z,99.9
2022-10-02T19:39:33.452Z,99.9
2022-10-02T19:41:33.162Z,99.9
2022-10-02T19:43:32.866Z,99.9
2022-10-02T19:45:32.623Z,99.9
2022-10-02T19:47:32.299Z,99.9
2022-10-02T19:49:32.045Z,99.9
2022-10-02T19:51:31.771Z,99.9
2022-10-02T19:53:34.849Z,99.9
2022-10-02T19:55:34.577Z,99.9
2022-10-02T19:57:34.292Z,99.9
2022-10-02T19:59:34.032Z,99.9
2022-10-02T20:01:33.953Z,99.9
2022-10-02T20:03:33.495Z,99.9
2022-10-02T20:05:33.249Z,99.9
2022-10-02T20:07:36.367Z,99.9
2022-10-02T20:09:36.095Z,99.9
2022-10-02T20:11:35.980Z,99.9
2022-10-02T20:14:37.138Z,99.9
2022-10-02T20:16:36.894Z,99.9
2022-10-02T20:18:36.580Z,99.9
2022-10-02T20:20:39.716Z,99.9
2022-10-02T20:22:39.446Z,99.9
2022-10-02T20:24:39.162Z,99.9
2022-10-02T20:26:38.899Z,99.9
2022-10-02T20:28:38.592Z,99.9
2022-10-02T20:30:38.311Z,99.9
2022-10-02T20:32:38.004Z,99.9
2022-10-02T20:34:41.157Z,99.9
2022-10-02T20:36:40.860Z,99.9
2022-10-02T20:38:40.557Z,99.9
2022-10-02T20:40:40.255Z,99.9
2022-10-02T20:42:39.983Z,99.9
2022-10-02T20:44:39.719Z,99.9
2022-10-02T20:46:39.391Z,99.9
2022-10-02T20:50:42.152Z,99.9
2022-10-02T20:52:41.893Z,99.9
2022-10-02T20:54:41.569Z,99.9
2022-10-02T20:56:41.286Z,99.9
2022-10-02T20:58:40.974Z,99.9
2022-10-02T21:00:40.680Z,99.9
2022-10-02T21:02:43.748Z,99.9
2022-10-02T21:04:43.456Z,99.9
2022-10-02T21:06:43.184Z,99.9
2022-10-02T21:07:44.733Z,99.9
2022-10-02T21:09:44.448Z,99.9
2022-10-02T21:11:44.139Z,99.9
2022-10-02T21:13:43.843Z,99.9
2022-10-02T21:15:46.957Z,99.9
2022-10-02T21:17:46.671Z,99.9
2022-10-02T21:19:46.379Z,99.9
2022-10-02T21:21:49.328Z,99.9
2022-10-02T21:27:45.252Z,99.9
2022-10-02T21:29:48.373Z,99.9
2022-10-02T21:31:48.066Z,99.9
2022-10-02T21:33:47.809Z,99.9
2022-10-02T21:35:48.245Z,99.9
2022-10-02T21:37:47.957Z,99.9
2022-10-02T21:39:47.667Z,99.9
2022-10-02T21:41:48.967Z,99.9
2022-10-02T21:43:52.042Z,99.9
2022-10-02T21:47:51.465Z,99.9
2022-10-02T21:49:51.200Z,99.9
2022-10-02T21:51:50.920Z,99.9
2022-10-02T21:53:50.606Z,99.9
2022-10-02T21:55:50.352Z,99.9
2022-10-02T21:57:53.481Z,99.9
2022-10-02T21:59:53.189Z,99.9
2022-10-02T22:08:53.690Z,99.9
2022-10-02T22:10:56.788Z,99.9
2022-10-02T22:12:56.528Z,99.9
2022-10-02T22:20:55.415Z,99.9
2022-10-02T22:22:55.133Z,99.9
2022-10-02T22:24:58.310Z,99.9
2022-10-02T22:26:58.023Z,99.9
2022-10-02T22:28:57.729Z,99.9
2022-10-02T22:30:57.503Z,99.9
2022-10-02T22:32:57.210Z,99.9
2022-10-02T22:34:56.979Z,99.9
2022-10-02T22:36:56.698Z,99.9
2022-10-02T22:38:59.816Z,99.9
2022-10-02T22:40:59.760Z,99.9
2022-10-02T22:42:59.358Z,99.9
2022-10-02T22:44:59.086Z,99.9
2022-10-02T22:46:58.831Z,99.9
2022-10-02T22:50:58.472Z,99.9
2022-10-02T22:55:01.181Z,99.9
2022-10-02T22:59:23.032Z,99.9
2022-10-02T23:03:22.519Z,99.9
2022-10-02T23:05:25.669Z,99.9
2022-10-02T23:07:25.419Z,99.9
2022-10-02T23:09:25.175Z,99.9
2022-10-02T23:11:24.902Z,99.9
2022-10-02T23:19:27.289Z,99.9
2022-10-02T23:21:27.094Z,99.9
2022-10-02T23:23:26.921Z,99.9
2022-10-02T23:25:26.656Z,99.9
2022-10-02T23:27:26.410Z,99.9
2022-10-02T23:29:26.133Z,99.9
2022-10-02T23:31:25.908Z,99.9
2022-10-02T23:33:29.041Z,99.9
2022-10-02T23:37:28.516Z,99.9
2022-10-02T23:39:28.296Z,99.9
2022-10-02T23:41:28.038Z,99.9
2022-10-02T23:43:27.908Z,99.9
2022-10-02T23:45:27.665Z,99.9
2022-10-02T23:47:30.871Z,99.9
2022-10-02T23:49:30.632Z,99.9
2022-10-02T23:51:30.492Z,99.9
2022-10-02T23:52:32.063Z,99.9
2022-10-02T23:54:31.837Z,99.9
2022-10-02T23:56:31.568Z,99.9
2022-10-02T23:58:31.343Z,99.9
